createdAt,value
2018-08-18T00:00:23.902Z,95772.6
2018-08-18T00:01:26.359Z,95769
2018-08-18T00:02:28.810Z,95772
2018-08-18T00:03:30.981Z,95772.9
2018-08-18T00:04:33.435Z,95775.1
2018-08-18T00:05:35.577Z,95777.7
2018-08-18T00:06:37.759Z,95780.6
2018-08-18T00:07:39.913Z,95783.3
2018-08-18T00:08:42.109Z,95782.5
2018-08-18T00:09:44.301Z,95783.6
2018-08-18T00:10:46.748Z,95783
2018-08-18T00:11:49.186Z,95784.5
2018-08-18T00:12:51.357Z,95785.7
2018-08-18T00:13:53.802Z,95782.5
2018-08-18T00:14:56.003Z,95785.4
2018-08-18T00:15:58.176Z,95785.3
2018-08-18T00:17:00.624Z,95787.5
2018-08-18T00:18:02.517Z,95785.5
2018-08-18T00:19:04.674Z,95786.4
2018-08-18T00:20:07.119Z,95781.5
2018-08-18T00:21:09.319Z,95782.3
2018-08-18T00:22:11.505Z,95785.2
2018-08-18T00:23:13.677Z,95782.7
2018-08-18T00:24:15.594Z,95782.9
2018-08-18T00:25:18.053Z,95781.9
2018-08-18T00:26:20.225Z,95784.4
2018-08-18T00:27:21.576Z,95782.1
2018-08-18T00:28:23.765Z,95783
2018-08-18T00:29:25.411Z,95784.2
2018-08-18T00:30:27.854Z,95779.9
2018-08-18T00:31:29.740Z,95779
2018-08-18T00:32:31.925Z,95773
2018-08-18T00:33:34.075Z,95776.8
2018-08-18T00:34:35.951Z,95779.4
2018-08-18T00:35:38.174Z,95778.6
2018-08-18T00:36:40.045Z,95782.7
2018-08-18T00:37:42.499Z,95777.7
2018-08-18T00:38:44.935Z,95776
2018-08-18T00:39:47.385Z,95775.9
2018-08-18T00:40:49.275Z,95775.8
2018-08-18T00:41:51.715Z,95775.3
2018-08-18T00:42:53.600Z,95773.5
2018-08-18T00:43:55.766Z,95778.7
2018-08-18T00:44:57.636Z,95779.9
2018-08-18T00:46:00.097Z,95780.2
2018-08-18T00:47:01.709Z,95783.9
2018-08-18T00:48:03.853Z,95784.8
2018-08-18T00:49:06.307Z,95785.1
2018-08-18T00:50:08.746Z,95789.1
2018-08-18T00:51:10.921Z,95785.8
2018-08-18T00:52:13.368Z,95780.5
2018-08-18T00:53:15.532Z,95784
2018-08-18T00:54:17.737Z,95781.2
2018-08-18T00:55:19.923Z,95778.1
2018-08-18T00:56:22.374Z,95782
2018-08-18T00:57:24.290Z,95785.6
2018-08-18T00:58:26.456Z,95780.1
2018-08-18T00:59:28.638Z,95781.5
2018-08-18T01:00:30.544Z,95783.5
2018-08-18T01:01:32.726Z,95785.1
2018-08-18T01:02:34.902Z,95783.1
2018-08-18T01:03:36.802Z,95792.4
2018-08-18T01:04:38.976Z,95789.5
2018-08-18T01:05:41.443Z,95793.1
2018-08-18T01:06:43.319Z,95789.3
2018-08-18T01:07:45.764Z,95789.8
2018-08-18T01:08:47.939Z,95788.8
2018-08-18T01:09:50.387Z,95786.9
2018-08-18T01:10:53.248Z,95790.6
2018-08-18T01:11:56.416Z,95789.9
2018-08-18T01:12:59.627Z,95796.9
2018-08-18T01:14:02.219Z,95799
2018-08-18T01:15:05.089Z,95796.5
2018-08-18T01:16:07.547Z,95798.4
2018-08-18T01:17:09.995Z,95802.8
2018-08-18T01:18:12.152Z,95801.7
2018-08-18T01:19:14.335Z,95801.6
2018-08-18T01:20:16.776Z,95797.9
2018-08-18T01:21:19.280Z,95797.9
2018-08-18T01:22:20.957Z,95797.7
2018-08-18T01:23:23.399Z,95794.6
2018-08-18T01:24:25.277Z,95795.9
2018-08-18T01:25:27.725Z,95798
2018-08-18T01:26:30.169Z,95795.3
2018-08-18T01:27:32.613Z,95794.5
2018-08-18T01:28:34.520Z,95790.5
2018-08-18T01:29:36.415Z,95792.8
2018-08-18T01:30:38.587Z,95795.9
2018-08-18T01:31:40.464Z,95797.4
2018-08-18T01:32:42.905Z,95798.9
2018-08-18T01:33:45.071Z,95801.5
2018-08-18T01:34:47.524Z,95801.5
2018-08-18T01:35:49.719Z,95805.9
2018-08-18T01:36:52.180Z,95801.3
2018-08-18T01:37:54.626Z,95801.9
2018-08-18T01:38:56.244Z,95802.4
2018-08-18T01:39:58.165Z,95804.3
2018-08-18T01:41:00.324Z,95799.5
2018-08-18T01:42:01.970Z,95802.5
2018-08-18T01:43:04.425Z,95801.6
2018-08-18T01:44:06.864Z,95800.4
2018-08-18T01:45:08.776Z,95803.9
2018-08-18T01:46:10.948Z,95804.4
2018-08-18T01:47:12.857Z,95799.5
2018-08-18T01:48:14.725Z,95797
2018-08-18T01:49:17.174Z,95798.6
2018-08-18T01:50:18.794Z,95799.4
2018-08-18T01:51:20.961Z,95800.6
2018-08-18T01:52:22.605Z,95798.5
2018-08-18T01:53:24.784Z,95799.3
2018-08-18T01:54:27.226Z,95799.2
2018-08-18T01:55:29.408Z,95801
2018-08-18T01:56:31.855Z,95799.3
2018-08-18T01:57:34.309Z,95804.6
2018-08-18T01:58:36.745Z,95806.5
2018-08-18T01:59:39.245Z,95806
2018-08-18T02:00:41.705Z,95807.9
2018-08-18T02:01:43.344Z,95802.4
2018-08-18T02:02:45.516Z,95804.5
2018-08-18T02:03:47.967Z,95803.3
2018-08-18T02:04:50.417Z,95804.3
2018-08-18T02:05:52.866Z,95803.7
2018-08-18T02:06:54.755Z,95801
2018-08-18T02:07:56.930Z,95802.7
2018-08-18T02:08:59.370Z,95801.5
2018-08-18T02:10:01.519Z,95802.3
2018-08-18T02:11:03.689Z,95802.9
2018-08-18T02:12:06.130Z,95804.9
2018-08-18T02:13:08.584Z,95810.4
2018-08-18T02:14:10.727Z,95812.4
2018-08-18T02:15:12.619Z,95810.3
2018-08-18T02:16:14.787Z,95810.1
2018-08-18T02:17:16.948Z,95812.9
2018-08-18T02:18:18.599Z,95813.4
2018-08-18T02:19:20.774Z,95811.4
2018-08-18T02:20:23.221Z,95815.6
2018-08-18T02:21:25.154Z,95816.8
2018-08-18T02:22:27.044Z,95817.8
2018-08-18T02:23:29.492Z,95818.6
2018-08-18T02:24:31.946Z,95816.9
2018-08-18T02:25:34.391Z,95815.1
2018-08-18T02:26:36.861Z,95817.5
2018-08-18T02:27:39.322Z,95815.7
2018-08-18T02:28:41.775Z,95817.2
2018-08-18T02:29:44.222Z,95814.7
2018-08-18T02:30:46.385Z,95819.5
2018-08-18T02:31:48.287Z,95819.3
2018-08-18T02:32:50.489Z,95817.1
2018-08-18T02:33:52.929Z,95820.7
2018-08-18T02:34:54.851Z,95818
2018-08-18T02:35:57.017Z,95817.5
2018-08-18T02:36:59.459Z,95819.2
2018-08-18T02:38:01.370Z,95820.7
2018-08-18T02:39:03.807Z,95819.6
2018-08-18T02:40:06.747Z,95820
2018-08-18T02:41:09.064Z,95821.6
2018-08-18T02:42:11.526Z,95823.2
2018-08-18T02:43:13.706Z,95821.2
2018-08-18T02:44:15.886Z,95820.4
2018-08-18T02:45:18.369Z,95820.1
2018-08-18T02:46:20.805Z,95818.9
2018-08-18T02:47:23.259Z,95820.5
2018-08-18T02:48:25.702Z,95823.4
2018-08-18T02:49:28.152Z,95823.4
2018-08-18T02:50:30.606Z,95823.2
2018-08-18T02:51:32.770Z,95824.3
2018-08-18T02:52:34.954Z,95827.5
2018-08-18T02:53:37.407Z,95826.9
2018-08-18T02:54:39.863Z,95824.5
2018-08-18T02:55:42.301Z,95824.9
2018-08-18T02:56:44.480Z,95828
2018-08-18T02:57:46.667Z,95824.2
2018-08-18T02:58:48.821Z,95827.3
2018-08-18T02:59:50.722Z,95828
2018-08-18T03:00:52.898Z,95828.8
2018-08-18T03:01:54.775Z,95830
2018-08-18T03:02:57.217Z,95832.7
2018-08-18T03:03:59.399Z,95831.3
2018-08-18T03:05:01.303Z,95833.9
2018-08-18T03:06:03.212Z,95831.4
2018-08-18T03:07:05.110Z,95833
2018-08-18T03:08:06.985Z,95833.4
2018-08-18T03:09:09.168Z,95833
2018-08-18T03:10:11.610Z,95838.8
2018-08-18T03:11:13.275Z,95834.8
2018-08-18T03:12:15.724Z,95837.3
2018-08-18T03:13:17.928Z,95834.4
2018-08-18T03:14:20.369Z,95839.8
2018-08-18T03:15:22.813Z,95836.7
2018-08-18T03:16:25.273Z,95839.7
2018-08-18T03:17:27.465Z,95836.8
2018-08-18T03:18:29.641Z,95841.7
2018-08-18T03:19:31.812Z,95838.7
2018-08-18T03:20:33.698Z,95843.7
2018-08-18T03:21:35.891Z,95843.2
2018-08-18T03:22:38.334Z,95844.5
2018-08-18T03:23:40.511Z,95847.9
2018-08-18T03:24:42.960Z,95849.8
2018-08-18T03:25:45.129Z,95851.4
2018-08-18T03:26:47.581Z,95847.1
2018-08-18T03:27:49.211Z,95852.1
2018-08-18T03:28:51.660Z,95848.9
2018-08-18T03:29:53.855Z,95854.8
2018-08-18T03:30:55.465Z,95853.8
2018-08-18T03:31:57.922Z,95857.9
2018-08-18T03:33:00.360Z,95852.3
2018-08-18T03:34:02.558Z,95856.8
2018-08-18T03:35:04.994Z,95857.5
2018-08-18T03:36:06.898Z,95857.2
2018-08-18T03:37:09.349Z,95861.3
2018-08-18T03:38:11.226Z,95860.1
2018-08-18T03:39:13.414Z,95859.3
2018-08-18T03:40:15.855Z,95855.7
2018-08-18T03:41:18.029Z,95860
2018-08-18T03:42:20.467Z,95858.7
2018-08-18T03:43:22.917Z,95859.6
2018-08-18T03:44:25.368Z,95858.3
2018-08-18T03:45:27.837Z,95857.8
2018-08-18T03:46:30.289Z,95862
2018-08-18T03:47:32.430Z,95860.2
2018-08-18T03:48:34.864Z,95859.4
2018-08-18T03:49:37.308Z,95863.4
2018-08-18T03:50:39.454Z,95865.2
2018-08-18T03:51:41.896Z,95866.7
2018-08-18T03:52:44.065Z,95865
2018-08-18T03:53:46.259Z,95867.7
2018-08-18T03:54:48.190Z,95862.7
2018-08-18T03:55:50.367Z,95869.5
2018-08-18T03:56:52.539Z,95869.9
2018-08-18T03:57:54.723Z,95868.8
2018-08-18T03:58:57.178Z,95872.4
2018-08-18T03:59:59.371Z,95875.3
2018-08-18T04:01:00.983Z,95875.3
2018-08-18T04:02:03.872Z,95879.8
2018-08-18T04:03:06.206Z,95880.7
2018-08-18T04:04:08.648Z,95881.9
2018-08-18T04:05:10.820Z,95886.3
2018-08-18T04:06:12.706Z,95886.5
2018-08-18T04:07:14.877Z,95883.5
2018-08-18T04:08:17.328Z,95888.1
2018-08-18T04:09:20.315Z,95888.9
2018-08-18T04:10:22.630Z,95892.5
2018-08-18T04:11:25.071Z,95888.3
2018-08-18T04:12:27.521Z,95887.5
2018-08-18T04:13:29.399Z,95891.5
2018-08-18T04:14:31.560Z,95893.3
2018-08-18T04:15:33.772Z,95891.9
2018-08-18T04:16:35.926Z,95895.6
2018-08-18T04:17:38.107Z,95895.9
2018-08-18T04:18:40.296Z,95892.2
2018-08-18T04:19:42.743Z,95891.7
2018-08-18T04:20:45.194Z,95893.2
2018-08-18T04:21:47.105Z,95893.5
2018-08-18T04:22:49.256Z,95892.9
2018-08-18T04:23:51.709Z,95896.3
2018-08-18T04:24:54.148Z,95890.7
2018-08-18T04:25:56.596Z,95891.9
2018-08-18T04:26:58.752Z,95896.2
2018-08-18T04:28:00.930Z,95892.5
2018-08-18T04:29:03.379Z,95895.7
2018-08-18T04:30:04.999Z,95890.7
2018-08-18T04:31:07.179Z,95895.5
2018-08-18T04:32:09.616Z,95891.3
2018-08-18T04:33:11.790Z,95893.1
2018-08-18T04:34:14.247Z,95891.8
2018-08-18T04:35:16.524Z,95895.5
2018-08-18T04:36:19.134Z,95889.1
2018-08-18T04:37:20.753Z,95893.3
2018-08-18T04:38:22.653Z,95890.8
2018-08-18T04:39:24.843Z,95893
2018-08-18T04:40:27.014Z,95887.5
2018-08-18T04:41:28.913Z,95884.3
2018-08-18T04:42:30.791Z,95884.8
2018-08-18T04:43:32.970Z,95885.3
2018-08-18T04:44:35.418Z,95887.2
2018-08-18T04:45:37.294Z,95888
2018-08-18T04:46:39.735Z,95892.2
2018-08-18T04:47:42.178Z,95890.6
2018-08-18T04:48:44.320Z,95891.9
2018-08-18T04:49:46.515Z,95892
2018-08-18T04:50:48.687Z,95891
2018-08-18T04:51:50.885Z,95891.8
2018-08-18T04:52:53.050Z,95892.6
2018-08-18T04:53:55.505Z,95893.3
2018-08-18T04:54:57.945Z,95892.1
2018-08-18T04:56:00.116Z,95889.6
2018-08-18T04:57:02.593Z,95895.8
2018-08-18T04:58:05.209Z,95889.4
2018-08-18T04:59:07.653Z,95891.5
2018-08-18T05:00:09.534Z,95895.1
2018-08-18T05:01:11.985Z,95895.6
2018-08-18T05:02:13.898Z,95895
2018-08-18T05:03:15.794Z,95889.1
2018-08-18T05:04:18.290Z,95898.3
2018-08-18T05:05:20.460Z,95892.6
2018-08-18T05:06:22.917Z,95894.5
2018-08-18T05:07:25.365Z,95893.5
2018-08-18T05:08:27.260Z,95891.4
2018-08-18T05:09:29.476Z,95894.7
2018-08-18T05:10:31.913Z,95891.3
2018-08-18T05:11:34.589Z,95893.5
2018-08-18T05:12:36.851Z,95896.6
2018-08-18T05:13:38.997Z,95894.1
2018-08-18T05:14:40.885Z,95893.2
2018-08-18T05:15:42.820Z,95891.7
2018-08-18T05:16:45.258Z,95891.5
2018-08-18T05:17:47.710Z,95892.3
2018-08-18T05:18:49.977Z,95894
2018-08-18T05:19:52.254Z,95894
2018-08-18T05:20:54.144Z,95893
2018-08-18T05:21:56.318Z,95899.8
2018-08-18T05:22:58.757Z,95900.9
2018-08-18T05:24:00.369Z,95900.2
2018-08-18T05:25:02.812Z,95904.9
2018-08-18T05:26:05.265Z,95904
2018-08-18T05:27:07.417Z,95903.5
2018-08-18T05:28:09.292Z,95907.2
2018-08-18T05:29:11.736Z,95907.5
2018-08-18T05:30:14.203Z,95908.7
2018-08-18T05:31:16.346Z,95905.6
2018-08-18T05:32:18.526Z,95908.2
2018-08-18T05:33:20.972Z,95910.5
2018-08-18T05:34:23.117Z,95905.2
2018-08-18T05:35:25.013Z,95907.8
2018-08-18T05:36:27.251Z,95909.8
2018-08-18T05:37:29.475Z,95909.3
2018-08-18T05:38:31.628Z,95911
2018-08-18T05:39:33.809Z,95908.4
2018-08-18T05:40:35.998Z,95908.7
2018-08-18T05:41:38.167Z,95910.6
2018-08-18T05:42:40.333Z,95913.9
2018-08-18T05:43:42.223Z,95911.2
2018-08-18T05:44:44.417Z,95913.5
2018-08-18T05:45:46.588Z,95914.2
2018-08-18T05:46:49.085Z,95908.4
2018-08-18T05:47:51.553Z,95908.4
2018-08-18T05:48:54.014Z,95906.3
2018-08-18T05:49:56.466Z,95913.3
2018-08-18T05:50:58.952Z,95910.7
2018-08-18T05:52:01.129Z,95912.2
2018-08-18T05:53:03.577Z,95910.1
2018-08-18T05:54:06.038Z,95914.3
2018-08-18T05:55:08.198Z,95914.5
2018-08-18T05:56:10.640Z,95914.7
2018-08-18T05:57:13.089Z,95914.3
2018-08-18T05:58:15.259Z,95915.7
2018-08-18T05:59:17.430Z,95918.5
2018-08-18T06:00:19.344Z,95921.5
2018-08-18T06:01:20.976Z,95919.7
2018-08-18T06:02:23.418Z,95920.1
2018-08-18T06:03:25.344Z,95922.3
2018-08-18T06:04:27.223Z,95926.7
2018-08-18T06:05:29.670Z,95921.4
2018-08-18T06:06:31.887Z,95926.2
2018-08-18T06:07:34.063Z,95923.9
2018-08-18T06:08:36.240Z,95929.1
2018-08-18T06:09:38.682Z,95925.8
2018-08-18T06:10:40.599Z,95924.1
2018-08-18T06:11:42.782Z,95928.5
2018-08-18T06:12:45.224Z,95931.8
2018-08-18T06:13:47.389Z,95931.7
2018-08-18T06:14:49.566Z,95936.8
2018-08-18T06:15:51.743Z,95938.5
2018-08-18T06:16:53.661Z,95940.7
2018-08-18T06:17:55.840Z,95937.4
2018-08-18T06:18:57.755Z,95940.3
2018-08-18T06:19:59.941Z,95941.8
2018-08-18T06:21:02.117Z,95944.4
2018-08-18T06:22:04.566Z,95943.5
2018-08-18T06:23:06.739Z,95937.5
2018-08-18T06:24:08.654Z,95938.4
2018-08-18T06:25:10.835Z,95937.7
2018-08-18T06:26:13.290Z,95938
2018-08-18T06:27:15.760Z,95937.2
2018-08-18T06:28:18.196Z,95941.7
2018-08-18T06:29:20.440Z,95943.7
2018-08-18T06:30:22.882Z,95945
2018-08-18T06:31:24.516Z,95939.9
2018-08-18T06:32:26.714Z,95943.7
2018-08-18T06:33:28.898Z,95945.6
2018-08-18T06:34:31.369Z,95945.9
2018-08-18T06:35:33.995Z,95943.5
2018-08-18T06:36:36.196Z,95942.9
2018-08-18T06:37:38.386Z,95942.2
2018-08-18T06:38:40.549Z,95944.2
2018-08-18T06:39:42.716Z,95945.4
2018-08-18T06:40:45.271Z,95946.8
2018-08-18T06:41:48.643Z,95946.2
2018-08-18T06:42:51.242Z,95952.7
2018-08-18T06:43:53.430Z,95950.8
2018-08-18T06:44:55.621Z,95947.6
2018-08-18T06:45:57.799Z,95952
2018-08-18T06:47:00.006Z,95950.3
2018-08-18T06:48:02.200Z,95950.9
2018-08-18T06:49:04.352Z,95949.3
2018-08-18T06:50:06.833Z,95952.9
2018-08-18T06:51:09.009Z,95955
2018-08-18T06:52:11.474Z,95953.5
2018-08-18T06:53:13.397Z,95953
2018-08-18T06:54:15.667Z,95953.3
2018-08-18T06:55:18.817Z,95956.3
2018-08-18T06:56:21.019Z,95957
2018-08-18T06:57:23.206Z,95954.8
2018-08-18T06:58:25.386Z,95956.3
2018-08-18T06:59:27.011Z,95952.8
2018-08-18T07:00:29.180Z,95953.1
2018-08-18T07:01:31.629Z,95958.3
2018-08-18T07:02:33.816Z,95954.4
2018-08-18T07:03:35.986Z,95958.3
2018-08-18T07:04:38.442Z,95955.7
2018-08-18T07:05:40.886Z,95954.6
2018-08-18T07:06:43.334Z,95956.8
2018-08-18T07:07:45.254Z,95956.5
2018-08-18T07:08:47.453Z,95955.9
2018-08-18T07:09:49.661Z,95956.2
2018-08-18T07:10:51.535Z,95959.7
2018-08-18T07:11:53.992Z,95954.3
2018-08-18T07:12:56.196Z,95959.8
2018-08-18T07:13:58.371Z,95960.6
2018-08-18T07:15:00.538Z,95960.8
2018-08-18T07:16:02.991Z,95963.6
2018-08-18T07:17:04.883Z,95958.3
2018-08-18T07:18:07.368Z,95963
2018-08-18T07:19:09.548Z,95962.1
2018-08-18T07:20:11.715Z,95961.2
2018-08-18T07:21:13.898Z,95964
2018-08-18T07:22:16.076Z,95964.1
2018-08-18T07:23:18.269Z,95963.6
2018-08-18T07:24:20.180Z,95968.1
2018-08-18T07:25:22.354Z,95964.1
2018-08-18T07:26:24.794Z,95965
2018-08-18T07:27:27.236Z,95965.2
2018-08-18T07:28:29.263Z,95965.1
2018-08-18T07:29:31.817Z,95965.1
2018-08-18T07:30:34.254Z,95964.6
2018-08-18T07:31:36.431Z,95966.5
2018-08-18T07:32:38.576Z,95964.9
2018-08-18T07:33:40.755Z,95964.1
2018-08-18T07:34:42.396Z,95959.3
2018-08-18T07:35:44.856Z,95959.2
2018-08-18T07:36:47.041Z,95961.7
2018-08-18T07:37:49.239Z,95956.4
2018-08-18T07:38:51.418Z,95958.1
2018-08-18T07:39:53.873Z,95956.5
2018-08-18T07:40:56.316Z,95958.4
2018-08-18T07:41:58.224Z,95955.6
2018-08-18T07:43:00.410Z,95957.5
2018-08-18T07:44:02.563Z,95960.1
2018-08-18T07:45:04.739Z,95958
2018-08-18T07:46:06.916Z,95960.1
2018-08-18T07:47:08.818Z,95957.5
2018-08-18T07:48:11.846Z,95960.3
2018-08-18T07:49:14.470Z,95966.2
2018-08-18T07:50:16.381Z,95959.8
2018-08-18T07:51:18.568Z,95960.2
2018-08-18T07:52:21.022Z,95963
2018-08-18T07:53:23.738Z,95960.6
2018-08-18T07:54:25.938Z,95966.4
2018-08-18T07:55:27.838Z,95965.1
2018-08-18T07:56:30.297Z,95968.6
2018-08-18T07:57:32.735Z,95971.2
2018-08-18T07:58:34.640Z,95969.7
2018-08-18T07:59:37.062Z,95972.5
2018-08-18T08:00:39.382Z,95972.2
2018-08-18T08:01:41.834Z,95973.7
2018-08-18T08:02:44.017Z,95976.2
2018-08-18T08:03:46.465Z,95972.3
2018-08-18T08:04:48.657Z,95971.2
2018-08-18T08:05:51.169Z,95974.6
2018-08-18T08:06:53.245Z,95974
2018-08-18T08:07:55.701Z,95974.6
2018-08-18T08:08:57.594Z,95978.3
2018-08-18T08:09:59.508Z,95981.1
2018-08-18T08:11:01.951Z,95975.8
2018-08-18T08:12:04.141Z,95979.7
2018-08-18T08:13:06.590Z,95975.8
2018-08-18T08:14:09.032Z,95978.1
2018-08-18T08:15:11.483Z,95979.3
2018-08-18T08:16:13.677Z,95984.4
2018-08-18T08:17:15.278Z,95981.7
2018-08-18T08:18:17.651Z,95980.6
2018-08-18T08:19:20.027Z,95981.5
2018-08-18T08:20:21.897Z,95980.2
2018-08-18T08:21:24.077Z,95981.2
2018-08-18T08:22:26.258Z,95982.1
2018-08-18T08:23:28.707Z,95979.9
2018-08-18T08:24:31.177Z,95988.8
2018-08-18T08:25:33.064Z,95981.8
2018-08-18T08:26:35.505Z,95985
2018-08-18T08:27:37.657Z,95986.5
2018-08-18T08:28:39.886Z,95985.8
2018-08-18T08:29:42.064Z,95989.2
2018-08-18T08:30:44.514Z,95983
2018-08-18T08:31:46.685Z,95983.4
2018-08-18T08:32:48.855Z,95984.5
2018-08-18T08:33:51.333Z,95983
2018-08-18T08:34:53.495Z,95984.5
2018-08-18T08:35:55.678Z,95983.5
2018-08-18T08:36:57.587Z,95984.4
2018-08-18T08:37:59.765Z,95988.1
2018-08-18T08:39:01.650Z,95986.8
2018-08-18T08:40:03.835Z,95986.7
2018-08-18T08:41:06.026Z,95987.6
2018-08-18T08:42:08.190Z,95990.5
2018-08-18T08:43:10.398Z,95989.1
2018-08-18T08:44:12.587Z,95986.3
2018-08-18T08:45:14.732Z,95988.5
2018-08-18T08:46:16.606Z,95995.2
2018-08-18T08:47:18.769Z,95992.3
2018-08-18T08:48:20.670Z,95990.7
2018-08-18T08:49:23.134Z,95991.1
2018-08-18T08:50:25.583Z,95990
2018-08-18T08:51:28.064Z,95991.6
2018-08-18T08:52:30.231Z,95992
2018-08-18T08:53:32.676Z,95992.9
2018-08-18T08:54:35.145Z,95998
2018-08-18T08:55:37.603Z,95991.1
2018-08-18T08:56:39.787Z,95991.2
2018-08-18T08:57:42.227Z,95993.2
2018-08-18T08:58:44.738Z,95995.9
2018-08-18T08:59:46.917Z,95997
2018-08-18T09:00:49.371Z,95995.7
2018-08-18T09:01:51.543Z,95996.4
2018-08-18T09:02:54.000Z,95993.3
2018-08-18T09:03:56.181Z,95994.4
2018-08-18T09:04:58.649Z,95992.4
2018-08-18T09:06:00.798Z,95993.8
2018-08-18T09:07:03.269Z,95994.7
2018-08-18T09:08:05.727Z,95995.4
2018-08-18T09:09:08.175Z,95997.5
2018-08-18T09:10:10.493Z,95995.4
2018-08-18T09:11:12.991Z,95997.8
2018-08-18T09:12:14.863Z,95996.1
2018-08-18T09:13:16.777Z,95997.4
2018-08-18T09:14:19.223Z,95994.8
2018-08-18T09:15:21.879Z,95996.2
2018-08-18T09:16:24.063Z,95997.7
2018-08-18T09:17:26.515Z,95994.1
2018-08-18T09:18:28.960Z,95995.1
2018-08-18T09:19:31.410Z,95992.9
2018-08-18T09:20:33.843Z,95990
2018-08-18T09:21:35.711Z,95996.4
2018-08-18T09:22:37.607Z,95996.3
2018-08-18T09:23:40.061Z,95996.1
2018-08-18T09:24:41.676Z,95993.9
2018-08-18T09:25:43.303Z,95993.6
2018-08-18T09:26:45.794Z,95997.4
2018-08-18T09:27:47.977Z,95997.2
2018-08-18T09:28:50.181Z,95995.7
2018-08-18T09:29:52.350Z,95996.1
2018-08-18T09:30:54.236Z,95997.4
2018-08-18T09:31:56.684Z,96001.2
2018-08-18T09:32:58.600Z,96001.2
2018-08-18T09:34:01.046Z,96004.1
2018-08-18T09:35:03.490Z,96000.4
2018-08-18T09:36:05.943Z,96001.9
2018-08-18T09:37:07.576Z,96007.1
2018-08-18T09:38:09.753Z,96005.6
2018-08-18T09:39:11.931Z,96003
2018-08-18T09:40:14.375Z,96003.7
2018-08-18T09:41:16.816Z,96004.5
2018-08-18T09:42:19.274Z,96003.5
2018-08-18T09:43:21.432Z,96003.6
2018-08-18T09:44:23.884Z,96002.9
2018-08-18T09:45:26.515Z,96004.3
2018-08-18T09:46:29.423Z,96002.2
2018-08-18T09:47:31.354Z,96006.3
2018-08-18T09:48:33.248Z,96005.5
2018-08-18T09:49:35.143Z,96009.3
2018-08-18T09:50:37.600Z,96010.6
2018-08-18T09:51:40.058Z,96007.9
2018-08-18T09:52:42.516Z,96007.5
2018-08-18T09:53:44.684Z,96008.3
2018-08-18T09:54:46.871Z,96004
2018-08-18T09:55:49.043Z,96006.9
2018-08-18T09:56:50.990Z,96006.5
2018-08-18T09:57:53.166Z,96001.3
2018-08-18T09:58:55.618Z,96001.4
2018-08-18T09:59:57.758Z,96003.6
2018-08-18T10:00:59.947Z,96003.4
2018-08-18T10:02:02.125Z,96012.1
2018-08-18T10:03:04.574Z,96008.2
2018-08-18T10:04:06.754Z,96007.4
2018-08-18T10:05:08.916Z,96008.6
2018-08-18T10:06:11.097Z,96006.8
2018-08-18T10:07:13.281Z,96004.5
2018-08-18T10:08:15.459Z,96006.6
2018-08-18T10:09:17.897Z,96003.6
2018-08-18T10:10:20.346Z,96003.6
2018-08-18T10:11:22.511Z,96005.3
2018-08-18T10:12:24.706Z,96006.1
2018-08-18T10:13:26.897Z,96000.4
2018-08-18T10:14:29.355Z,96001.9
2018-08-18T10:15:31.809Z,95997
2018-08-18T10:16:33.977Z,96003.3
2018-08-18T10:17:35.588Z,96005.2
2018-08-18T10:18:38.025Z,96006.5
2018-08-18T10:19:40.486Z,96005
2018-08-18T10:20:42.371Z,96004.2
2018-08-18T10:21:44.550Z,96002.3
2018-08-18T10:22:46.422Z,95999.8
2018-08-18T10:23:48.574Z,95998.9
2018-08-18T10:24:50.456Z,96001.7
2018-08-18T10:25:52.629Z,96002.1
2018-08-18T10:26:54.782Z,95999.8
2018-08-18T10:27:57.235Z,96001.2
2018-08-18T10:28:59.412Z,96002.5
2018-08-18T10:30:01.600Z,96000.9
2018-08-18T10:31:03.766Z,96003.1
2018-08-18T10:32:06.258Z,95998.5
2018-08-18T10:33:08.709Z,95996.2
2018-08-18T10:34:11.200Z,95998.9
2018-08-18T10:35:13.660Z,95998.1
2018-08-18T10:36:15.834Z,95997.4
2018-08-18T10:37:18.281Z,95993.9
2018-08-18T10:38:20.434Z,95994.1
2018-08-18T10:39:22.879Z,95998
2018-08-18T10:40:25.034Z,95993.6
2018-08-18T10:41:27.481Z,95997.5
2018-08-18T10:42:29.664Z,95992.4
2018-08-18T10:43:31.826Z,95990
2018-08-18T10:44:34.281Z,95992.1
2018-08-18T10:45:36.463Z,95994.7
2018-08-18T10:46:38.363Z,95994.7
2018-08-18T10:47:40.253Z,95994.4
2018-08-18T10:48:42.709Z,95991.7
2018-08-18T10:49:44.349Z,95985.2
2018-08-18T10:50:46.255Z,95985.7
2018-08-18T10:51:47.880Z,95986.9
2018-08-18T10:52:50.327Z,95993.5
2018-08-18T10:53:52.245Z,95988.5
2018-08-18T10:54:54.142Z,95990.5
2018-08-18T10:55:56.319Z,95992.4
2018-08-18T10:56:58.478Z,95992.9
2018-08-18T10:58:00.387Z,95990.6
2018-08-18T10:59:02.573Z,95989.8
2018-08-18T11:00:04.485Z,95996.2
2018-08-18T11:01:06.937Z,95993.2
2018-08-18T11:02:09.160Z,95991.8
2018-08-18T11:03:11.049Z,95988.3
2018-08-18T11:04:12.971Z,95987.8
2018-08-18T11:05:15.426Z,95987.3
2018-08-18T11:06:17.318Z,95991.2
2018-08-18T11:07:19.762Z,95986.8
2018-08-18T11:08:22.214Z,95984.8
2018-08-18T11:09:24.386Z,95986.2
2018-08-18T11:10:26.841Z,95985.5
2018-08-18T11:11:28.741Z,95984.7
2018-08-18T11:12:30.915Z,95986.3
2018-08-18T11:13:33.377Z,95984.1
2018-08-18T11:14:35.555Z,95982.8
2018-08-18T11:15:37.157Z,95983.2
2018-08-18T11:16:39.334Z,95986.6
2018-08-18T11:17:41.267Z,95982.2
2018-08-18T11:18:43.725Z,95983.6
2018-08-18T11:19:46.172Z,95984.2
2018-08-18T11:20:48.619Z,95983.8
2018-08-18T11:21:50.634Z,95984.8
2018-08-18T11:22:52.609Z,95982.7
2018-08-18T11:23:54.766Z,95981.4
2018-08-18T11:24:57.209Z,95984.4
2018-08-18T11:25:59.396Z,95978.9
2018-08-18T11:27:01.279Z,95980
2018-08-18T11:28:03.746Z,95982.6
2018-08-18T11:29:06.219Z,95977.7
2018-08-18T11:30:08.386Z,95977.5
2018-08-18T11:31:10.265Z,95975.3
2018-08-18T11:32:12.188Z,95977.1
2018-08-18T11:33:14.099Z,95975.7
2018-08-18T11:34:16.275Z,95975.2
2018-08-18T11:35:18.737Z,95969.9
2018-08-18T11:36:20.903Z,95969.7
2018-08-18T11:37:23.364Z,95972.2
2018-08-18T11:38:25.831Z,95970.2
2018-08-18T11:39:28.279Z,95971.1
2018-08-18T11:40:30.445Z,95971
2018-08-18T11:41:33.159Z,95972.9
2018-08-18T11:42:35.079Z,95971.5
2018-08-18T11:43:37.539Z,95973
2018-08-18T11:44:39.992Z,95974.3
2018-08-18T11:45:42.151Z,95974.3
2018-08-18T11:46:44.071Z,95974.1
2018-08-18T11:47:46.227Z,95976.3
2018-08-18T11:48:48.395Z,95977.9
2018-08-18T11:49:50.584Z,95973.2
2018-08-18T11:50:53.049Z,95977.1
2018-08-18T11:51:55.506Z,95971.9
2018-08-18T11:52:57.394Z,95973.5
2018-08-18T11:53:59.836Z,95976.3
2018-08-18T11:55:02.030Z,95977.3
2018-08-18T11:56:04.196Z,95970.5
2018-08-18T11:57:06.647Z,95970.7
2018-08-18T11:58:08.570Z,95966.1
2018-08-18T11:59:11.044Z,95962.6
2018-08-18T12:00:13.244Z,95966.4
2018-08-18T12:01:15.136Z,95963.5
2018-08-18T12:02:17.319Z,95963.7
2018-08-18T12:03:19.497Z,95963.1
2018-08-18T12:04:21.958Z,95963.6
2018-08-18T12:05:23.838Z,95958.6
2018-08-18T12:06:26.024Z,95954.6
2018-08-18T12:07:28.217Z,95960.5
2018-08-18T12:08:30.138Z,95960
2018-08-18T12:09:32.580Z,95956
2018-08-18T12:10:35.373Z,95957.4
2018-08-18T12:11:37.960Z,95960.8
2018-08-18T12:12:40.419Z,95959.5
2018-08-18T12:13:42.872Z,95963.1
2018-08-18T12:14:45.324Z,95961.7
2018-08-18T12:15:47.540Z,95963
2018-08-18T12:16:49.977Z,95960.2
2018-08-18T12:17:52.425Z,95955.8
2018-08-18T12:18:54.602Z,95953.7
2018-08-18T12:19:57.050Z,95956.3
2018-08-18T12:20:59.532Z,95957.1
2018-08-18T12:22:01.407Z,95958.6
2018-08-18T12:23:03.844Z,95953.3
2018-08-18T12:24:06.027Z,95951.6
2018-08-18T12:25:08.474Z,95951.1
2018-08-18T12:26:10.917Z,95956.2
2018-08-18T12:27:12.827Z,95951.8
2018-08-18T12:28:15.087Z,95952.4
2018-08-18T12:29:17.532Z,95948.3
2018-08-18T12:30:19.980Z,95950.8
2018-08-18T12:31:22.185Z,95949.2
2018-08-18T12:32:24.633Z,95946.3
2018-08-18T12:33:27.091Z,95946.9
2018-08-18T12:34:28.987Z,95945.4
2018-08-18T12:35:31.434Z,95949.7
2018-08-18T12:36:34.000Z,95948.4